Warning: Javascript must be enabled to use all the features on this page!


Page Loading - Please Wait...

* We've detected you're using a mobile device. Find our Next Generation Station Page here.
Click to hideNews Bulletins

Peak Streamflow for the Nation

USGS 05066500 GOOSE RIVER AT HILLSBORO, ND

Traill County, North Dakota
Hydrologic Unit Code 09020109
Latitude  47°24'34", Longitude  97°03'39" NAD27
Drainage area 1,203  square miles
Contributing drainage area 1,093  square miles
Gage datum 880.60 feet above NAVD88
Output formats
Table
Graph
Tab-separated file
peakfq (watstore) format
Reselect output format
Water
Year
Date Gage
Height
(feet)
Stream-
flow
(cfs)
1882 1882-04   6,7007,Bd
1897 1897-04   5,7007,Bd
1904 1904-04   5,3007,Bd
1916 1916-04   4,7007,Bd
1931 1931-04-07 4.201,3 100
1932 1932-03-03 15.141,3 959
1933 1933-03 10.403,Bd 3002,Bd
1934 1934-04-02 4.951,3 107
1935 1935-06-14 8.453 697
1936 1936-04-16 13.063 1,660
1937 1937-04-15 3.571,3 46.0
1938 1938-03-15 4.442,3 104
1939 1939-03-26 11.001,3 564
1940 1940-04-17 1.66 710
1941 1941-04-11 2.262 1,320
1942 1942-04-06 2.27 1,140
1943 1943-03-28   1,2001,2
1944 1944-04-10 1.11 304
1945 1945-03-17 1.09 293
1946 1946-03-22 3.221 1,300
1947 1947-04-13 5.301 1,700
1948 1948-04-16 10.63 4,180
1949 1949-04-08 3.38 1,640
1950 1950-04-19 14.94 9,420
1951 1951-03-31 3.481 1,130
1952 1952-04-04 3.331 1,300
1953 1953-07-06 1.36 408
1954 1954-06-15 0.99 231
1955 1955-04-03 2.44 1,220
1956 1956-04-19 2.58 1,390
1957 1957-09-07 1.17 200
1958 1958-07-03 0.69 88.0
1959 1959-04-05 0.842 143
1960 1960-04-09 3.371 1,360
1961 1961-03-07 0.66 82.0
1962 1962-04-09 8.641 2,350
1963 1963-04-08 1.241 290
1964 1964-06-14 3.61 1,110
1965 1965-04-13 14.01 6,800
1966 1966-03-23 12.171 3,290
1967 1967-04-24 7.812 2,650
1968 1968-06-12 4.48 1,420
1969 1969-04-12 14.19 7,640
1970 1970-04-09 9.18 3,040
1971 1971-04-10 4.41 1,550
1972 1972-04-15 6.622 2,380
1973 1973-03-15 4.05 1,280
1974 1974-04-15 9.432 3,450
1975 1975-04-19 11.111 3,810
1976 1976-03-29 3.98 1,260
1977 1977-04-11 2.01 86.0
1978 1978-04-01 10.561 3,800
1979 1979-04-21 16.76 14,800
1980 1980-03-31 3.55 790
1981 1981-06-25 1.83 25.6
1982 1982-04-03 8.891 2,900
1983 1983-03-17   1,140
1984 1984-03-29 7.991 2,660
1985 1985-03-16 4.171 1,240
1986 1986-03-24 4.81 1,630
1987 1987-03-26 10.22 3,570
1988 1988-03-28 3.86 1,060
1989 1989-04-08 9.801 3,000
1990 1990-04-06 2.01 94.0
1991 1991-06-01 2.75 351
1992 1992-03-08 3.69 975
1993 1993-07-30 12.90 4,360
1994 1994-03-23 6.91 2,160
1995 1995-03-18 9.00 3,390
1996 1996-04-13 12.06 4,750
1997 1997-04-06 15.62 8,520
1998 1998-02-27 6.49 2,340
1999 1999-03-30 13.77 6,350
2000 2000-06-21 9.902 3,070
2001 2001-04-08 10.33 3,890
2002 2002-07-12 12.24 4,940
2003 2003-06-26 3.78 1,190
2004 2004-03-31 14.40 7,180
2005 2005-06-15 11.90 4,740
2006 2006-04-02 14.04 7,270
2007 2007-03-27 7.25 2,770
2008 2008-04-06 3.221,2 6302
2009 2009-03-25 16.67 8,700
2010 2010-03-20 15.641 7,260
2011 2011-04-09 15.50 10,000
2012 2012-03-17 3.092 580
2013 2013-04-29 9.21 4,000
2014 2014-04-12 5.612 2,380
2015 2015-05-20 3.87 1,130
2016 2016-09-09 3.94 1,100
2017 2017-04-02 4.89 1,950
2018 2018-04-23 15.132 9,180
2019 2019-04-08 11.852 5,0802
2020 2020-04-02 13.75 6,0002
2021 2021-03-25 2.142 102
?
  Peak Gage-Height Qualification Codes.
?
  Peak Streamflow Qualification Codes.